Sign-in with your pilot id or email, or register

ICAO: LZKZ Name / Country: Kosice, Barca / Slovakia
Latitude: 48.6631 Longitude: 21.2411
Total Arrivals:
Strict Standards: Non-static method AirportData::getarrflights() should not be called statically, assuming $this from incompatible context in /var/www/customers/vh-7192/web/home/phpvms/core/templates/airport_info.tpl on line 18
2
Total Departures:
Strict Standards: Non-static method AirportData::getdeptflights() should not be called statically, assuming $this from incompatible context in /var/www/customers/vh-7192/web/home/phpvms/core/templates/airport_info.tpl on line 21
3
Latest Arrival: MTA810 (LHBP-LZKZ) Tibor Berces Latest Departure: MTA811 (LZKZ-LHBP) Laszlo Bartucz
Metar: LZKZ 151700Z 15004KT CAVOK 22/12 Q1013
More info

Charts for LZKZ


NOTAM


Warning: file_get_contents(http://api.vateud.net/notams/LZKZ.json): failed to open stream: Redirection limit reached, aborting in /var/www/customers/vh-7192/web/home/phpvms/core/common/NOTAMSData.class.php on line 18

Warning: Invalid argument supplied for foreach() in /var/www/customers/vh-7192/web/home/phpvms/core/common/NOTAMSData.class.php on line 22

Kosice, Barca